sensor_id;sensor_type;location;lat;lon;timestamp;pressure;altitude;pressure_sealevel;temperature;humidity
35989;BME280;22064;42.672;23.282;2022-12-18T00:02:12;95399.06;;;5.58;100.00
35989;BME280;22064;42.672;23.282;2022-12-18T00:04:37;95402.25;;;5.60;100.00
35989;BME280;22064;42.672;23.282;2022-12-18T00:07:03;95413.28;;;5.41;100.00
35989;BME280;22064;42.672;23.282;2022-12-18T00:09:29;95408.94;;;5.48;100.00
35989;BME280;22064;42.672;23.282;2022-12-18T00:11:54;95408.22;;;5.26;100.00
35989;BME280;22064;42.672;23.282;2022-12-18T00:14:20;95413.78;;;5.29;100.00
35989;BME280;22064;42.672;23.282;2022-12-18T00:16:46;95415.78;;;5.27;100.00
35989;BME280;22064;42.672;23.282;2022-12-18T00:19:13;95412.25;;;5.35;100.00
35989;BME280;22064;42.672;23.282;2022-12-18T00:21:39;95414.03;;;5.35;100.00
35989;BME280;22064;42.672;23.282;2022-12-18T00:24:04;95415.59;;;5.29;100.00
35989;BME280;22064;42.672;23.282;2022-12-18T00:26:32;95432.47;;;5.31;100.00
35989;BME280;22064;42.672;23.282;2022-12-18T00:29:06;95426.19;;;5.41;100.00
35989;BME280;22064;42.672;23.282;2022-12-18T00:31:33;95436.03;;;5.24;100.00
35989;BME280;22064;42.672;23.282;2022-12-18T00:34:00;95431.81;;;5.23;100.00
35989;BME280;22064;42.672;23.282;2022-12-18T00:36:28;95440.00;;;5.26;100.00
35989;BME280;22064;42.672;23.282;2022-12-18T00:38:56;95433.91;;;5.34;100.00
35989;BME280;22064;42.672;23.282;2022-12-18T00:41:22;95431.78;;;5.16;100.00
35989;BME280;22064;42.672;23.282;2022-12-18T00:44:09;95413.63;;;5.03;100.00
35989;BME280;22064;42.672;23.282;2022-12-18T00:46:34;95442.88;;;5.10;100.00
35989;BME280;22064;42.672;23.282;2022-12-18T00:49:00;95436.91;;;5.09;100.00
35989;BME280;22064;42.672;23.282;2022-12-18T00:51:26;95443.44;;;5.05;100.00
35989;BME280;22064;42.672;23.282;2022-12-18T00:53:52;95445.34;;;4.97;100.00
35989;BME280;22064;42.672;23.282;2022-12-18T00:56:18;95453.22;;;4.89;100.00
35989;BME280;22064;42.672;23.282;2022-12-18T00:58:43;95459.84;;;4.76;100.00
35989;BME280;22064;42.672;23.282;2022-12-18T01:01:09;95454.53;;;4.78;100.00
35989;BME280;22064;42.672;23.282;2022-12-18T01:03:35;95448.75;;;4.76;100.00
35989;BME280;22064;42.672;23.282;2022-12-18T01:06:09;95453.44;;;4.66;100.00
35989;BME280;22064;42.672;23.282;2022-12-18T01:08:35;95449.00;;;4.59;100.00
35989;BME280;22064;42.672;23.282;2022-12-18T01:11:06;95459.22;;;4.68;100.00
35989;BME280;22064;42.672;23.282;2022-12-18T01:13:32;95459.00;;;4.69;100.00
35989;BME280;22064;42.672;23.282;2022-12-18T01:15:57;95473.22;;;4.58;100.00
35989;BME280;22064;42.672;23.282;2022-12-18T01:18:23;95477.75;;;4.56;100.00
35989;BME280;22064;42.672;23.282;2022-12-18T01:20:49;95467.09;;;4.45;100.00
35989;BME280;22064;42.672;23.282;2022-12-18T01:23:15;95464.66;;;4.36;100.00
35989;BME280;22064;42.672;23.282;2022-12-18T01:25:40;95469.81;;;4.36;100.00
35989;BME280;22064;42.672;23.282;2022-12-18T01:28:08;95461.25;;;4.36;100.00
35989;BME280;22064;42.672;23.282;2022-12-18T01:30:34;95470.59;;;4.37;100.00
35989;BME280;22064;42.672;23.282;2022-12-18T01:32:59;95464.03;;;4.34;100.00
35989;BME280;22064;42.672;23.282;2022-12-18T01:35:25;95471.84;;;4.41;100.00
35989;BME280;22064;42.672;23.282;2022-12-18T01:37:55;95485.28;;;4.36;100.00
35989;BME280;22064;42.672;23.282;2022-12-18T01:40:21;95500.88;;;4.50;100.00
35989;BME280;22064;42.672;23.282;2022-12-18T01:42:52;95476.50;;;4.31;100.00
35989;BME280;22064;42.672;23.282;2022-12-18T01:47:56;95479.47;;;4.49;100.00
35989;BME280;22064;42.672;23.282;2022-12-18T01:50:35;95492.03;;;4.37;100.00
35989;BME280;22064;42.672;23.282;2022-12-18T01:53:13;95490.19;;;4.31;100.00
35989;BME280;22064;42.672;23.282;2022-12-18T01:55:48;95486.59;;;4.32;100.00
35989;BME280;22064;42.672;23.282;2022-12-18T01:58:16;95497.78;;;4.18;100.00
35989;BME280;22064;42.672;23.282;2022-12-18T02:00:42;95494.47;;;4.24;100.00
35989;BME280;22064;42.672;23.282;2022-12-18T02:03:08;95496.97;;;4.18;100.00
35989;BME280;22064;42.672;23.282;2022-12-18T02:06:08;95491.09;;;4.24;100.00
35989;BME280;22064;42.672;23.282;2022-12-18T02:08:48;95494.19;;;4.19;100.00
35989;BME280;22064;42.672;23.282;2022-12-18T02:14:17;95492.63;;;4.18;100.00
35989;BME280;22064;42.672;23.282;2022-12-18T02:27:44;95505.88;;;4.15;100.00
35989;BME280;22064;42.672;23.282;2022-12-18T02:30:12;95514.81;;;4.19;100.00
35989;BME280;22064;42.672;23.282;2022-12-18T02:32:40;95514.91;;;4.11;100.00
35989;BME280;22064;42.672;23.282;2022-12-18T02:35:13;95517.75;;;4.16;100.00
35989;BME280;22064;42.672;23.282;2022-12-18T02:37:42;95518.91;;;4.13;100.00
35989;BME280;22064;42.672;23.282;2022-12-18T02:40:10;95514.47;;;4.07;100.00
35989;BME280;22064;42.672;23.282;2022-12-18T02:42:37;95535.00;;;4.01;100.00
35989;BME280;22064;42.672;23.282;2022-12-18T02:45:06;95525.63;;;3.93;100.00
35989;BME280;22064;42.672;23.282;2022-12-18T02:47:38;95531.66;;;4.00;100.00
35989;BME280;22064;42.672;23.282;2022-12-18T02:56:20;95527.00;;;3.96;100.00
35989;BME280;22064;42.672;23.282;2022-12-18T03:01:33;95519.19;;;3.89;100.00
35989;BME280;22064;42.672;23.282;2022-12-18T03:04:07;95531.84;;;3.84;100.00
35989;BME280;22064;42.672;23.282;2022-12-18T03:06:44;95532.44;;;4.01;100.00
35989;BME280;22064;42.672;23.282;2022-12-18T03:09:19;95542.94;;;3.84;100.00
35989;BME280;22064;42.672;23.282;2022-12-18T03:11:53;95543.72;;;3.85;100.00
35989;BME280;22064;42.672;23.282;2022-12-18T03:14:40;95541.84;;;3.79;100.00
35989;BME280;22064;42.672;23.282;2022-12-18T03:17:10;95552.09;;;3.87;100.00
35989;BME280;22064;42.672;23.282;2022-12-18T03:19:39;95546.16;;;3.86;100.00
35989;BME280;22064;42.672;23.282;2022-12-18T03:22:07;95544.28;;;3.80;100.00
35989;BME280;22064;42.672;23.282;2022-12-18T03:24:41;95549.50;;;4.02;100.00
35989;BME280;22064;42.672;23.282;2022-12-18T03:27:11;95544.00;;;3.90;100.00
35989;BME280;22064;42.672;23.282;2022-12-18T03:29:41;95548.00;;;3.92;100.00
35989;BME280;22064;42.672;23.282;2022-12-18T03:32:12;95546.50;;;3.83;100.00
35989;BME280;22064;42.672;23.282;2022-12-18T03:34:42;95556.69;;;4.06;100.00
35989;BME280;22064;42.672;23.282;2022-12-18T03:37:13;95559.78;;;4.02;100.00
35989;BME280;22064;42.672;23.282;2022-12-18T03:39:40;95559.78;;;4.02;100.00
35989;BME280;22064;42.672;23.282;2022-12-18T03:47:26;95580.88;;;3.90;100.00
35989;BME280;22064;42.672;23.282;2022-12-18T03:50:11;95581.66;;;3.91;100.00
35989;BME280;22064;42.672;23.282;2022-12-18T03:52:51;95586.19;;;3.89;100.00
35989;BME280;22064;42.672;23.282;2022-12-18T03:55:22;95584.16;;;3.99;100.00
35989;BME280;22064;42.672;23.282;2022-12-18T03:57:56;95603.97;;;3.99;100.00
35989;BME280;22064;42.672;23.282;2022-12-18T04:00:28;95585.69;;;3.93;100.00
35989;BME280;22064;42.672;23.282;2022-12-18T04:03:04;95602.72;;;3.94;100.00
35989;BME280;22064;42.672;23.282;2022-12-18T04:05:37;95600.16;;;3.94;100.00
35989;BME280;22064;42.672;23.282;2022-12-18T04:08:04;95605.03;;;3.89;100.00
35989;BME280;22064;42.672;23.282;2022-12-18T04:10:36;95615.50;;;3.88;100.00
35989;BME280;22064;42.672;23.282;2022-12-18T04:13:01;95613.00;;;3.80;100.00
35989;BME280;22064;42.672;23.282;2022-12-18T04:15:28;95619.84;;;3.73;100.00
35989;BME280;22064;42.672;23.282;2022-12-18T04:17:54;95633.16;;;3.76;100.00
35989;BME280;22064;42.672;23.282;2022-12-18T04:20:22;95638.25;;;3.84;100.00
35989;BME280;22064;42.672;23.282;2022-12-18T04:22:48;95637.63;;;3.82;100.00
35989;BME280;22064;42.672;23.282;2022-12-18T04:25:13;95646.41;;;3.73;100.00
35989;BME280;22064;42.672;23.282;2022-12-18T04:27:50;95636.38;;;3.78;100.00
35989;BME280;22064;42.672;23.282;2022-12-18T04:30:16;95654.13;;;3.73;100.00
35989;BME280;22064;42.672;23.282;2022-12-18T04:32:42;95646.81;;;3.62;100.00
35989;BME280;22064;42.672;23.282;2022-12-18T04:35:08;95664.22;;;3.60;100.00
35989;BME280;22064;42.672;23.282;2022-12-18T04:37:35;95660.25;;;3.72;100.00
35989;BME280;22064;42.672;23.282;2022-12-18T04:40:01;95672.41;;;3.63;100.00
35989;BME280;22064;42.672;23.282;2022-12-18T04:42:35;95663.78;;;3.56;100.00
35989;BME280;22064;42.672;23.282;2022-12-18T04:45:01;95675.75;;;3.64;100.00
35989;BME280;22064;42.672;23.282;2022-12-18T04:47:26;95675.09;;;3.47;100.00
35989;BME280;22064;42.672;23.282;2022-12-18T04:49:52;95676.56;;;3.64;100.00
35989;BME280;22064;42.672;23.282;2022-12-18T04:52:17;95672.91;;;3.82;100.00
35989;BME280;22064;42.672;23.282;2022-12-18T04:54:43;95682.75;;;3.78;100.00
35989;BME280;22064;42.672;23.282;2022-12-18T04:57:08;95682.88;;;3.62;100.00
35989;BME280;22064;42.672;23.282;2022-12-18T04:59:34;95686.59;;;3.59;100.00
35989;BME280;22064;42.672;23.282;2022-12-18T05:01:59;95695.31;;;3.58;100.00
35989;BME280;22064;42.672;23.282;2022-12-18T05:04:25;95694.22;;;3.53;100.00
35989;BME280;22064;42.672;23.282;2022-12-18T05:06:50;95706.78;;;3.47;100.00
35989;BME280;22064;42.672;23.282;2022-12-18T05:09:16;95700.38;;;3.43;100.00
35989;BME280;22064;42.672;23.282;2022-12-18T05:11:41;95688.34;;;3.36;100.00
35989;BME280;22064;42.672;23.282;2022-12-18T05:14:06;95707.75;;;3.23;100.00
35989;BME280;22064;42.672;23.282;2022-12-18T05:16:32;95696.97;;;3.20;100.00
35989;BME280;22064;42.672;23.282;2022-12-18T05:18:58;95706.31;;;3.21;100.00
35989;BME280;22064;42.672;23.282;2022-12-18T05:21:23;95714.53;;;3.16;100.00
35989;BME280;22064;42.672;23.282;2022-12-18T05:23:48;95708.25;;;3.19;100.00
35989;BME280;22064;42.672;23.282;2022-12-18T05:26:16;95712.00;;;3.08;100.00
35989;BME280;22064;42.672;23.282;2022-12-18T05:28:42;95715.69;;;3.14;100.00
35989;BME280;22064;42.672;23.282;2022-12-18T05:31:09;95712.31;;;3.13;100.00
35989;BME280;22064;42.672;23.282;2022-12-18T05:33:35;95709.34;;;3.24;100.00
35989;BME280;22064;42.672;23.282;2022-12-18T05:36:02;95737.66;;;3.24;100.00
35989;BME280;22064;42.672;23.282;2022-12-18T05:38:29;95732.97;;;3.28;100.00
35989;BME280;22064;42.672;23.282;2022-12-18T05:40:55;95744.88;;;3.29;100.00
35989;BME280;22064;42.672;23.282;2022-12-18T05:43:22;95745.94;;;3.12;100.00
35989;BME280;22064;42.672;23.282;2022-12-18T05:45:48;95762.72;;;2.99;100.00
35989;BME280;22064;42.672;23.282;2022-12-18T05:48:14;95753.25;;;2.92;100.00
35989;BME280;22064;42.672;23.282;2022-12-18T05:50:42;95761.94;;;2.91;100.00
35989;BME280;22064;42.672;23.282;2022-12-18T05:53:09;95752.44;;;2.99;100.00
35989;BME280;22064;42.672;23.282;2022-12-18T05:55:35;95763.72;;;2.90;100.00
35989;BME280;22064;42.672;23.282;2022-12-18T05:58:02;95754.25;;;2.83;100.00
35989;BME280;22064;42.672;23.282;2022-12-18T06:00:29;95750.28;;;2.72;100.00
35989;BME280;22064;42.672;23.282;2022-12-18T06:02:54;95760.16;;;2.91;100.00
35989;BME280;22064;42.672;23.282;2022-12-18T06:05:20;95762.63;;;2.76;100.00
35989;BME280;22064;42.672;23.282;2022-12-18T06:07:45;95774.81;;;2.91;100.00
35989;BME280;22064;42.672;23.282;2022-12-18T06:10:11;95766.63;;;2.87;100.00
35989;BME280;22064;42.672;23.282;2022-12-18T06:12:37;95765.88;;;3.10;100.00
35989;BME280;22064;42.672;23.282;2022-12-18T06:15:03;95764.75;;;3.12;100.00
35989;BME280;22064;42.672;23.282;2022-12-18T06:17:29;95742.50;;;2.88;100.00
35989;BME280;22064;42.672;23.282;2022-12-18T06:19:55;95770.91;;;3.03;100.00
35989;BME280;22064;42.672;23.282;2022-12-18T06:22:20;95769.78;;;3.06;100.00
35989;BME280;22064;42.672;23.282;2022-12-18T06:24:46;95778.56;;;3.11;100.00
35989;BME280;22064;42.672;23.282;2022-12-18T06:27:11;95782.78;;;3.04;100.00
35989;BME280;22064;42.672;23.282;2022-12-18T06:29:37;95789.88;;;3.02;100.00
35989;BME280;22064;42.672;23.282;2022-12-18T06:32:02;95780.06;;;3.06;100.00
35989;BME280;22064;42.672;23.282;2022-12-18T06:34:28;95790.50;;;3.12;100.00
35989;BME280;22064;42.672;23.282;2022-12-18T06:36:53;95788.81;;;3.28;100.00
35989;BME280;22064;42.672;23.282;2022-12-18T06:39:19;95795.13;;;3.17;100.00
35989;BME280;22064;42.672;23.282;2022-12-18T06:41:44;95789.03;;;3.18;100.00
35989;BME280;22064;42.672;23.282;2022-12-18T06:44:10;95776.88;;;2.95;100.00
35989;BME280;22064;42.672;23.282;2022-12-18T06:46:35;95801.06;;;3.17;100.00
35989;BME280;22064;42.672;23.282;2022-12-18T06:49:01;95806.84;;;3.19;100.00
35989;BME280;22064;42.672;23.282;2022-12-18T06:51:26;95822.16;;;3.13;100.00
35989;BME280;22064;42.672;23.282;2022-12-18T06:53:52;95817.34;;;3.10;100.00
35989;BME280;22064;42.672;23.282;2022-12-18T06:56:17;95822.16;;;3.13;100.00
35989;BME280;22064;42.672;23.282;2022-12-18T06:58:43;95828.63;;;3.00;100.00
35989;BME280;22064;42.672;23.282;2022-12-18T07:01:10;95821.22;;;3.06;100.00
35989;BME280;22064;42.672;23.282;2022-12-18T07:03:37;95836.34;;;3.09;100.00
35989;BME280;22064;42.672;23.282;2022-12-18T07:06:02;95823.75;;;3.14;100.00
35989;BME280;22064;42.672;23.282;2022-12-18T07:08:29;95833.44;;;3.12;100.00
35989;BME280;22064;42.672;23.282;2022-12-18T07:10:55;95832.78;;;3.10;100.00
35989;BME280;22064;42.672;23.282;2022-12-18T07:13:20;95835.91;;;3.36;100.00
35989;BME280;22064;42.672;23.282;2022-12-18T07:15:46;95836.16;;;3.18;100.00
35989;BME280;22064;42.672;23.282;2022-12-18T07:18:11;95836.34;;;3.09;100.00
35989;BME280;22064;42.672;23.282;2022-12-18T07:20:37;95833.44;;;3.12;100.00
35989;BME280;22064;42.672;23.282;2022-12-18T07:23:03;95831.19;;;3.09;100.00
35989;BME280;22064;42.672;23.282;2022-12-18T07:25:33;95840.19;;;3.05;100.00
35989;BME280;22064;42.672;23.282;2022-12-18T07:27:59;95832.47;;;3.05;100.00
35989;BME280;22064;42.672;23.282;2022-12-18T07:30:25;95848.88;;;3.12;100.00
35989;BME280;22064;42.672;23.282;2022-12-18T07:32:50;95857.72;;;3.09;100.00
35989;BME280;22064;42.672;23.282;2022-12-18T07:35:16;95854.31;;;3.17;100.00
35989;BME280;22064;42.672;23.282;2022-12-18T07:37:41;95853.66;;;3.23;100.00
35989;BME280;22064;42.672;23.282;2022-12-18T07:40:08;95857.09;;;3.07;100.00
35989;BME280;22064;42.672;23.282;2022-12-18T07:42:33;95861.56;;;3.21;100.00
35989;BME280;22064;42.672;23.282;2022-12-18T07:45:00;95868.34;;;3.06;100.00
35989;BME280;22064;42.672;23.282;2022-12-18T07:47:29;95866.28;;;2.85;100.00
35989;BME280;22064;42.672;23.282;2022-12-18T07:49:54;95859.56;;;2.76;100.00
35989;BME280;22064;42.672;23.282;2022-12-18T07:52:20;95877.09;;;2.72;100.00
35989;BME280;22064;42.672;23.282;2022-12-18T07:54:46;95866.19;;;2.62;100.00
35989;BME280;22064;42.672;23.282;2022-12-18T07:57:14;95873.88;;;2.70;100.00
35989;BME280;22064;42.672;23.282;2022-12-18T07:59:39;95877.22;;;2.71;100.00
35989;BME280;22064;42.672;23.282;2022-12-18T08:02:05;95876.75;;;2.75;100.00
35989;BME280;22064;42.672;23.282;2022-12-18T08:04:30;95892.69;;;2.63;100.00
35989;BME280;22064;42.672;23.282;2022-12-18T08:06:56;95888.53;;;2.62;100.00
35989;BME280;22064;42.672;23.282;2022-12-18T08:09:21;95894.59;;;2.61;100.00
35989;BME280;22064;42.672;23.282;2022-12-18T08:11:47;95895.75;;;2.50;100.00
35989;BME280;22064;42.672;23.282;2022-12-18T08:14:12;95891.41;;;2.50;100.00
35989;BME280;22064;42.672;23.282;2022-12-18T08:16:38;95905.22;;;2.49;100.00
35989;BME280;22064;42.672;23.282;2022-12-18T08:19:04;95918.56;;;2.53;100.00
35989;BME280;22064;42.672;23.282;2022-12-18T08:21:31;95902.00;;;2.64;100.00
35989;BME280;22064;42.672;23.282;2022-12-18T08:23:58;95908.75;;;2.73;100.00
35989;BME280;22064;42.672;23.282;2022-12-18T08:26:26;95910.84;;;2.53;100.00
35989;BME280;22064;42.672;23.282;2022-12-18T08:28:54;95913.41;;;2.53;100.00
35989;BME280;22064;42.672;23.282;2022-12-18T08:31:20;95908.75;;;2.57;100.00
35989;BME280;22064;42.672;23.282;2022-12-18T08:33:48;95920.63;;;2.74;100.00
35989;BME280;22064;42.672;23.282;2022-12-18T08:36:14;95922.88;;;2.85;100.00
35989;BME280;22064;42.672;23.282;2022-12-18T08:38:40;95927.69;;;2.80;100.00
35989;BME280;22064;42.672;23.282;2022-12-18T08:41:08;95929.81;;;2.76;100.00
35989;BME280;22064;42.672;23.282;2022-12-18T08:43:34;95924.34;;;2.47;100.00
35989;BME280;22064;42.672;23.282;2022-12-18T08:46:19;95935.59;;;2.38;100.00
35989;BME280;22064;42.672;23.282;2022-12-18T08:48:45;95926.09;;;2.54;100.00
35989;BME280;22064;42.672;23.282;2022-12-18T08:51:11;95929.94;;;2.42;100.00
35989;BME280;22064;42.672;23.282;2022-12-18T08:53:37;95934.78;;;2.37;100.00
35989;BME280;22064;42.672;23.282;2022-12-18T08:56:03;95927.09;;;2.62;100.00
35989;BME280;22064;42.672;23.282;2022-12-18T08:58:29;95931.56;;;2.68;100.00
35989;BME280;22064;42.672;23.282;2022-12-18T09:01:03;95925.16;;;2.72;100.00
35989;BME280;22064;42.672;23.282;2022-12-18T09:03:29;95917.59;;;2.70;100.00
35989;BME280;22064;42.672;23.282;2022-12-18T09:05:55;95922.25;;;2.67;100.00
35989;BME280;22064;42.672;23.282;2022-12-18T09:08:20;95928.53;;;2.56;100.00
35989;BME280;22064;42.672;23.282;2022-12-18T09:10:48;95919.50;;;2.52;100.00
35989;BME280;22064;42.672;23.282;2022-12-18T09:13:15;95905.06;;;2.51;100.00
35989;BME280;22064;42.672;23.282;2022-12-18T09:15:46;95926.13;;;2.63;100.00
35989;BME280;22064;42.672;23.282;2022-12-18T09:18:13;95921.28;;;2.68;100.00
35989;BME280;22064;42.672;23.282;2022-12-18T09:20:39;95919.50;;;2.52;100.00
35989;BME280;22064;42.672;23.282;2022-12-18T09:23:05;95934.31;;;2.66;100.00
35989;BME280;22064;42.672;23.282;2022-12-18T09:25:32;95918.22;;;2.64;100.00
35989;BME280;22064;42.672;23.282;2022-12-18T09:27:59;95922.72;;;2.78;100.00
35989;BME280;22064;42.672;23.282;2022-12-18T09:30:26;95925.97;;;2.81;100.00
35989;BME280;22064;42.672;23.282;2022-12-18T09:32:51;95924.34;;;2.88;100.00
35989;BME280;22064;42.672;23.282;2022-12-18T09:35:18;95920.66;;;2.90;100.00
35989;BME280;22064;42.672;23.282;2022-12-18T09:37:43;95923.69;;;2.86;100.00
35989;BME280;22064;42.672;23.282;2022-12-18T09:40:21;95925.63;;;3.00;100.00
35989;BME280;22064;42.672;23.282;2022-12-18T09:42:53;95917.06;;;3.08;100.00
35989;BME280;22064;42.672;23.282;2022-12-18T09:45:19;95925.25;;;3.11;100.00
35989;BME280;22064;42.672;23.282;2022-12-18T09:47:47;95923.19;;;3.07;100.00
35989;BME280;22064;42.672;23.282;2022-12-18T09:50:30;95926.38;;;3.17;100.00
35989;BME280;22064;42.672;23.282;2022-12-18T09:53:00;95923.66;;;3.18;100.00
35989;BME280;22064;42.672;23.282;2022-12-18T09:55:33;95928.66;;;3.12;100.00
35989;BME280;22064;42.672;23.282;2022-12-18T10:00:36;95918.38;;;3.04;100.00
35989;BME280;22064;42.672;23.282;2022-12-18T10:03:09;95916.44;;;2.97;100.00
35989;BME280;22064;42.672;23.282;2022-12-18T10:10:42;95930.91;;;2.98;100.00
35989;BME280;22064;42.672;23.282;2022-12-18T10:13:20;95918.03;;;3.07;100.00
35989;BME280;22064;42.672;23.282;2022-12-18T10:26:47;95931.41;;;2.86;100.00
35989;BME280;22064;42.672;23.282;2022-12-18T10:29:15;95929.31;;;2.89;100.00
35989;BME280;22064;42.672;23.282;2022-12-18T10:31:41;95932.69;;;2.98;100.00
35989;BME280;22064;42.672;23.282;2022-12-18T10:34:15;95938.44;;;3.08;100.00
35989;BME280;22064;42.672;23.282;2022-12-18T10:36:40;95939.94;;;3.03;100.00
35989;BME280;22064;42.672;23.282;2022-12-18T10:39:20;95949.72;;;3.07;100.00
35989;BME280;22064;42.672;23.282;2022-12-18T10:41:48;95920.25;;;3.26;100.00
35989;BME280;22064;42.672;23.282;2022-12-18T10:44:21;95937.00;;;3.14;100.00
35989;BME280;22064;42.672;23.282;2022-12-18T10:46:53;95933.16;;;3.18;100.00
35989;BME280;22064;42.672;23.282;2022-12-18T10:49:27;95925.09;;;3.21;100.00
35989;BME280;22064;42.672;23.282;2022-12-18T10:52:24;95941.16;;;3.31;100.00
35989;BME280;22064;42.672;23.282;2022-12-18T10:57:37;95918.91;;;3.46;100.00
35989;BME280;22064;42.672;23.282;2022-12-18T11:00:27;95926.34;;;3.33;100.00
35989;BME280;22064;42.672;23.282;2022-12-18T11:02:54;95927.50;;;3.31;100.00
35989;BME280;22064;42.672;23.282;2022-12-18T11:07:51;95927.50;;;3.14;100.00
35989;BME280;22064;42.672;23.282;2022-12-18T11:10:20;95938.78;;;3.13;100.00
35989;BME280;22064;42.672;23.282;2022-12-18T11:12:46;95946.69;;;3.12;100.00
35989;BME280;22064;42.672;23.282;2022-12-18T11:15:19;95934.38;;;3.30;100.00
35989;BME280;22064;42.672;23.282;2022-12-18T11:17:48;95915.59;;;3.21;100.00
35989;BME280;22064;42.672;23.282;2022-12-18T11:20:36;95939.84;;;3.35;100.00
35989;BME280;22064;42.672;23.282;2022-12-18T11:23:11;95957.41;;;3.32;100.00
35989;BME280;22064;42.672;23.282;2022-12-18T11:25:38;95940.25;;;2.99;100.00
35989;BME280;22064;42.672;23.282;2022-12-18T11:33:54;95937.94;;;3.37;100.00
35989;BME280;22064;42.672;23.282;2022-12-18T11:36:22;95932.97;;;3.19;100.00
35989;BME280;22064;42.672;23.282;2022-12-18T11:38:49;95934.72;;;3.35;100.00
35989;BME280;22064;42.672;23.282;2022-12-18T11:43:54;95943.41;;;3.34;100.00
35989;BME280;22064;42.672;23.282;2022-12-18T11:46:36;95936.47;;;3.43;100.00
35989;BME280;22064;42.672;23.282;2022-12-18T11:51:55;95940.66;;;3.44;100.00
35989;BME280;22064;42.672;23.282;2022-12-18T11:54:22;95937.91;;;3.45;100.00
35989;BME280;22064;42.672;23.282;2022-12-18T11:56:53;95946.94;;;3.41;100.00
35989;BME280;22064;42.672;23.282;2022-12-18T12:07:25;95926.50;;;3.32;100.00
35989;BME280;22064;42.672;23.282;2022-12-18T12:15:53;95937.41;;;3.50;100.00
35989;BME280;22064;42.672;23.282;2022-12-18T12:19:02;95922.59;;;3.52;100.00
35989;BME280;22064;42.672;23.282;2022-12-18T12:32:25;95935.88;;;3.80;100.00
35989;BME280;22064;42.672;23.282;2022-12-18T12:35:25;95937.66;;;3.72;100.00
35989;BME280;22064;42.672;23.282;2022-12-18T12:40:27;95937.91;;;3.45;100.00
35989;BME280;22064;42.672;23.282;2022-12-18T12:43:04;95938.78;;;3.69;100.00
35989;BME280;22064;42.672;23.282;2022-12-18T12:46:05;95939.84;;;3.83;100.00
35989;BME280;22064;42.672;23.282;2022-12-18T12:48:37;95928.81;;;3.74;100.00
35989;BME280;22064;42.672;23.282;2022-12-18T12:51:16;95935.13;;;3.94;100.00
35989;BME280;22064;42.672;23.282;2022-12-18T12:53:42;95937.91;;;3.93;100.00
35989;BME280;22064;42.672;23.282;2022-12-18T12:56:10;95943.88;;;3.85;100.00
35989;BME280;22064;42.672;23.282;2022-12-18T13:01:25;95950.00;;;3.92;100.00
35989;BME280;22064;42.672;23.282;2022-12-18T13:04:03;95946.13;;;3.49;100.00
35989;BME280;22064;42.672;23.282;2022-12-18T13:09:00;95946.94;;;3.33;100.00
35989;BME280;22064;42.672;23.282;2022-12-18T13:11:46;95960.91;;;3.47;100.00
35989;BME280;22064;42.672;23.282;2022-12-18T13:14:31;95966.41;;;3.36;100.00
35989;BME280;22064;42.672;23.282;2022-12-18T13:19:49;95962.38;;;3.50;100.00
35989;BME280;22064;42.672;23.282;2022-12-18T13:24:46;95965.94;;;3.40;100.00
35989;BME280;22064;42.672;23.282;2022-12-18T13:38:25;95973.28;;;3.60;100.00
35989;BME280;22064;42.672;23.282;2022-12-18T13:40:59;95974.88;;;3.61;100.00
35989;BME280;22064;42.672;23.282;2022-12-18T13:43:35;95970.97;;;3.73;100.00
35989;BME280;22064;42.672;23.282;2022-12-18T13:48:35;95974.91;;;3.44;100.00
35989;BME280;22064;42.672;23.282;2022-12-18T13:51:09;95987.13;;;3.51;100.00
35989;BME280;22064;42.672;23.282;2022-12-18T13:53:44;95990.03;;;3.47;100.00
35989;BME280;22064;42.672;23.282;2022-12-18T13:56:22;96000.63;;;3.61;100.00
35989;BME280;22064;42.672;23.282;2022-12-18T13:59:41;96002.59;;;3.51;100.00
35989;BME280;22064;42.672;23.282;2022-12-18T14:02:18;96000.84;;;3.35;100.00
35989;BME280;22064;42.672;23.282;2022-12-18T14:04:47;96006.31;;;3.40;100.00
35989;BME280;22064;42.672;23.282;2022-12-18T14:07:16;96003.91;;;3.38;100.00
35989;BME280;22064;42.672;23.282;2022-12-18T14:09:45;95995.56;;;3.28;100.00
35989;BME280;22064;42.672;23.282;2022-12-18T14:12:32;95995.22;;;3.23;100.00
35989;BME280;22064;42.672;23.282;2022-12-18T14:20:31;96013.53;;;3.53;100.00
35989;BME280;22064;42.672;23.282;2022-12-18T14:22:57;96019.03;;;3.33;100.00
35989;BME280;22064;42.672;23.282;2022-12-18T14:25:27;96016.44;;;3.50;100.00
35989;BME280;22064;42.672;23.282;2022-12-18T14:30:32;96020.94;;;3.47;100.00
35989;BME280;22064;42.672;23.282;2022-12-18T14:33:29;96022.72;;;3.39;100.00
35989;BME280;22064;42.672;23.282;2022-12-18T14:36:00;96011.81;;;3.37;100.00
35989;BME280;22064;42.672;23.282;2022-12-18T14:38:34;96021.59;;;3.41;100.00
35989;BME280;22064;42.672;23.282;2022-12-18T14:41:05;96013.09;;;3.24;100.00
35989;BME280;22064;42.672;23.282;2022-12-18T14:43:36;96009.69;;;3.32;100.00
35989;BME280;22064;42.672;23.282;2022-12-18T14:46:05;96009.03;;;3.30;100.00
35989;BME280;22064;42.672;23.282;2022-12-18T14:51:15;96009.84;;;3.39;100.00
35989;BME280;22064;42.672;23.282;2022-12-18T14:53:44;96017.59;;;3.31;100.00
35989;BME280;22064;42.672;23.282;2022-12-18T14:56:21;96009.22;;;3.29;100.00
35989;BME280;22064;42.672;23.282;2022-12-18T14:58:53;96014.56;;;3.27;100.00
35989;BME280;22064;42.672;23.282;2022-12-18T15:01:26;96014.88;;;3.16;100.00
35989;BME280;22064;42.672;23.282;2022-12-18T15:03:54;96019.03;;;3.17;100.00
35989;BME280;22064;42.672;23.282;2022-12-18T15:08:51;96019.03;;;3.17;100.00
35989;BME280;22064;42.672;23.282;2022-12-18T15:11:33;96022.56;;;3.08;100.00
35989;BME280;22064;42.672;23.282;2022-12-18T15:14:03;96037.06;;;3.00;100.00